Nearby METAR Reports

 

KOXC - Oxford/Waterbury, Connecticut, USA
Distance from station: NW 7mi, 11km
Updated: 08/18/2018 9:51pm
Overcast
Overcast
 Wind from NNE
Wind: NNE 16 mph , 26 km/h, Gust: 23 mph , 37 km/h
Temperature: 70°F , 21°C
Dew Point: 66°F , 19°C
Humidity: 88%
Barometer: 29.89 inHg , 1012.2 hPa
Clouds: Overcast
Visibility: 10 miles , 16 km
Cloud details: Mostly cloudy 1400 ft
Overcast 3800 ft
2018/08/19 01:51 KOXC 190151Z AUTO 02014G20KT 10SM BKN014 OVC038 21/19 A2989 RMK AO2 SLP129 T02110189
KHVN - New Haven/Tweed, Connecticut, USA
Distance from station: SE 13mi, 20km
Updated: 08/18/2018 9:53pm
Mostly cloudy
Mostly cloudy
 Wind from NNE
Wind: NNE 9 mph , 15 km/h
Temperature: 73°F , 23°C
Dew Point: 72°F , 22°C
Humidity: 94%
Barometer: 29.84 inHg , 1010.5 hPa
Clouds: Mostly cloudy
Visibility: 10 miles , 16 km
Cloud details: Few Clouds 5000 ft
Mostly cloudy 9500 ft
2018/08/19 01:53 KHVN 190153Z 02008KT 10SM FEW050 BKN095 23/22 A2984 RMK AO2 SLP105 T02330222
 
KMMK - Meriden, Connecticut, USA
Distance from station: NE 13mi, 21km
Updated: 08/18/2018 10:09pm
Overcast
Overcast
 Wind from N
Wind: N 8 mph , 13 km/h
Temperature: 72°F , 22°C
Dew Point: 64°F , 18°C
Humidity: 78%
Barometer: 29.86 inHg , 1011.2 hPa
Clouds: Overcast
Visibility: 10 miles , 16 km
Cloud details: Partly cloudy 2300 ft
Partly cloudy 3200 ft
Overcast 5500 ft
2018/08/19 02:09 KMMK 190209Z AUTO 36007KT 10SM SCT023 SCT032 OVC055 22/18 A2986 RMK AO2 T02170183
KBDR - Bridgeport, Connecticut, USA
Distance from station: SSW 17mi, 27km
Updated: 08/18/2018 9:52pm
Overcast
Overcast
 Wind from NNW
Wind: NNW 6 mph , 9 km/h
Temperature: 75°F , 24°C
Dew Point: 70°F , 21°C
Humidity: 83%
Barometer: 29.84 inHg , 1010.5 hPa
Clouds: Overcast
Visibility: 10 miles , 16 km
Cloud details: Overcast 8000 ft
2018/08/19 01:52 KBDR 190152Z 34005KT 10SM OVC080 24/21 A2984 RMK AO2 SLP105 T02390211
 
KDXR - Danbury, Connecticut, USA
Distance from station: W 23mi, 38km
Updated: 08/18/2018 9:53pm
Overcast
Overcast
 Wind from NW
Wind: NW 5 mph , 7 km/h
Temperature: 70°F , 21°C
Dew Point: 66°F , 19°C
Humidity: 88%
Barometer: 29.89 inHg , 1012.2 hPa
Clouds: Overcast
Visibility: 10 miles , 16 km
Cloud details: Mostly cloudy 2000 ft
Overcast 2500 ft
2018/08/19 01:53 KDXR 190153Z 32004KT 10SM BKN020 OVC025 21/19 A2989 RMK AO2 SLP117 T02110194 $